createdAt,value
2022-10-22T00:00:33.076Z,72.42
2022-10-22T00:05:40.181Z,72.45
2022-10-22T00:10:47.476Z,72.48
2022-10-22T00:15:54.587Z,72.51
2022-10-22T00:21:01.669Z,72.55
2022-10-22T00:26:09.104Z,72.60
2022-10-22T00:31:16.518Z,72.61
2022-10-22T00:36:23.810Z,72.65
2022-10-22T00:41:31.047Z,72.66
2022-10-22T00:46:38.354Z,72.69
2022-10-22T00:51:45.654Z,72.71
2022-10-22T00:56:52.720Z,72.73
2022-10-22T01:01:59.985Z,72.74
2022-10-22T01:07:07.724Z,72.77
2022-10-22T01:12:25.745Z,72.78
2022-10-22T01:17:40.587Z,72.81
2022-10-22T01:22:57.034Z,72.84
2022-10-22T01:28:17.664Z,72.85
2022-10-22T01:33:28.594Z,72.88
2022-10-22T01:38:36.202Z,72.92
2022-10-22T01:43:43.478Z,72.96
2022-10-22T01:49:04.039Z,73.00
2022-10-22T01:54:21.795Z,73.03
2022-10-22T01:59:41.903Z,73.06
2022-10-22T02:04:56.561Z,73.11
2022-10-22T02:10:04.713Z,73.16
2022-10-22T02:15:14.455Z,73.23
2022-10-22T02:20:26.635Z,73.27
2022-10-22T02:25:37.329Z,73.34
2022-10-22T02:30:50.505Z,73.42
2022-10-22T02:36:00.844Z,73.49
2022-10-22T02:41:08.447Z,73.57
2022-10-22T02:46:16.455Z,73.63
2022-10-22T02:51:23.460Z,73.68
2022-10-22T02:56:30.453Z,73.76
2022-10-22T03:01:37.370Z,73.82
2022-10-22T03:06:45.393Z,73.90
2022-10-22T03:11:52.705Z,73.99
2022-10-22T03:16:59.861Z,74.10
2022-10-22T03:22:11.579Z,74.21
2022-10-22T03:27:21.404Z,74.32
2022-10-22T03:32:28.342Z,74.44
2022-10-22T03:37:36.492Z,74.55
2022-10-22T03:42:44.365Z,74.68
2022-10-22T03:47:51.563Z,74.80
2022-10-22T03:52:58.553Z,74.92
2022-10-22T03:58:05.363Z,75.05
2022-10-22T04:03:13.018Z,75.15
2022-10-22T04:08:20.366Z,75.24
2022-10-22T04:13:28.123Z,75.35
2022-10-22T04:18:34.952Z,75.45
2022-10-22T04:23:46.099Z,75.53
2022-10-22T04:28:54.245Z,75.61
2022-10-22T04:34:02.929Z,75.70
2022-10-22T04:39:09.905Z,75.77
2022-10-22T04:44:17.419Z,75.82
2022-10-22T04:49:25.352Z,75.88
2022-10-22T04:54:33.250Z,75.94
2022-10-22T04:59:40.386Z,75.99
2022-10-22T05:04:48.784Z,76.09
2022-10-22T05:09:56.791Z,76.21
2022-10-22T05:15:03.787Z,76.27
2022-10-22T05:20:12.766Z,76.37
2022-10-22T05:25:19.744Z,76.47
2022-10-22T05:30:26.764Z,76.53
2022-10-22T05:35:33.787Z,76.60
2022-10-22T05:40:40.959Z,76.68
2022-10-22T05:45:47.863Z,76.75
2022-10-22T05:50:54.782Z,76.83
2022-10-22T05:56:03.686Z,76.92
2022-10-22T06:01:13.823Z,77.01
2022-10-22T06:06:27.773Z,77.09
2022-10-22T06:11:35.433Z,77.17
2022-10-22T06:16:42.625Z,77.27
2022-10-22T06:21:50.265Z,77.36
2022-10-22T06:26:57.365Z,77.44
2022-10-22T06:32:04.266Z,77.52
2022-10-22T06:37:11.500Z,77.63
2022-10-22T06:42:18.405Z,77.71
2022-10-22T06:47:28.113Z,77.77
2022-10-22T06:52:35.105Z,77.86
2022-10-22T06:57:42.309Z,77.94
2022-10-22T07:02:57.729Z,78.02
2022-10-22T07:08:06.889Z,78.07
2022-10-22T07:13:13.844Z,78.17
2022-10-22T07:18:20.802Z,78.25
2022-10-22T07:23:28.233Z,78.32
2022-10-22T07:28:35.270Z,78.37
2022-10-22T07:33:42.714Z,78.42
2022-10-22T07:38:51.033Z,78.47
2022-10-22T07:43:58.203Z,78.53
2022-10-22T07:49:05.191Z,78.60
2022-10-22T07:54:12.457Z,78.67
2022-10-22T07:59:19.545Z,78.71
2022-10-22T08:04:26.370Z,78.79
2022-10-22T08:09:33.852Z,78.83
2022-10-22T08:14:41.081Z,78.87
2022-10-22T08:19:48.074Z,78.90
2022-10-22T08:24:55.129Z,78.96
2022-10-22T08:30:02.284Z,79.02
2022-10-22T08:35:12.982Z,79.07
2022-10-22T08:40:30.631Z,79.08
2022-10-22T08:45:44.092Z,79.13
2022-10-22T08:50:54.575Z,79.22
2022-10-22T08:56:02.064Z,79.25
2022-10-22T09:01:13.604Z,79.32
2022-10-22T09:06:23.991Z,79.31
2022-10-22T09:11:36.445Z,79.35
2022-10-22T09:16:58.057Z,79.40
2022-10-22T09:22:14.669Z,79.41
2022-10-22T09:27:24.371Z,79.45
2022-10-22T09:32:33.790Z,79.48
2022-10-22T09:37:52.432Z,79.51
2022-10-22T09:42:59.384Z,79.51
2022-10-22T09:48:21.402Z,79.54
2022-10-22T09:53:31.011Z,79.54
2022-10-22T09:58:49.664Z,79.58
2022-10-22T10:04:08.357Z,79.60
2022-10-22T10:09:20.875Z,79.64
2022-10-22T10:14:38.943Z,79.68
2022-10-22T10:20:12.824Z,79.71
2022-10-22T10:25:33.910Z,79.73
2022-10-22T10:30:49.764Z,79.79
2022-10-22T10:36:03.989Z,79.86
2022-10-22T10:41:24.633Z,79.90
2022-10-22T10:46:37.631Z,79.99
2022-10-22T10:51:55.510Z,80.03
2022-10-22T10:57:09.954Z,80.05
2022-10-22T11:03:04.826Z,80.06
2022-10-22T11:08:19.409Z,80.00
2022-10-22T11:13:33.565Z,80.09
2022-10-22T11:18:43.810Z,80.13
2022-10-22T11:23:57.613Z,80.17
2022-10-22T11:29:06.872Z,80.19
2022-10-22T11:34:33.222Z,80.19
2022-10-22T11:39:47.030Z,80.29
2022-10-22T11:45:04.596Z,80.26
2022-10-22T11:50:26.434Z,80.28
2022-10-22T11:55:48.899Z,80.35
2022-10-22T12:00:57.202Z,80.41
2022-10-22T12:06:23.576Z,80.48
2022-10-22T12:11:37.961Z,80.47
2022-10-22T12:16:56.289Z,80.54
2022-10-22T12:22:14.692Z,80.61
2022-10-22T12:27:26.771Z,80.59
2022-10-22T12:32:38.072Z,80.65
2022-10-22T12:37:45.169Z,80.72
2022-10-22T12:42:55.359Z,80.81
2022-10-22T12:48:05.112Z,80.86
2022-10-22T12:53:16.932Z,80.94
2022-10-22T12:58:28.212Z,80.98
2022-10-22T13:03:38.911Z,81.03
2022-10-22T13:08:46.545Z,81.06
2022-10-22T13:14:02.890Z,81.10
2022-10-22T13:19:23.331Z,81.13
2022-10-22T13:24:31.391Z,81.17
2022-10-22T13:29:38.721Z,81.23
2022-10-22T13:34:47.612Z,81.26
2022-10-22T13:39:54.720Z,81.30
2022-10-22T13:45:01.553Z,81.37
2022-10-22T13:50:17.771Z,81.38
2022-10-22T13:55:27.153Z,81.41
2022-10-22T14:00:34.778Z,81.46
2022-10-22T14:05:41.790Z,81.50
2022-10-22T14:10:49.691Z,81.53
2022-10-22T14:15:56.866Z,81.57
2022-10-22T14:21:07.791Z,81.60
2022-10-22T14:26:30.676Z,81.62
2022-10-22T14:31:38.467Z,81.64
2022-10-22T14:36:45.553Z,81.70
2022-10-22T14:41:52.599Z,81.75
2022-10-22T14:46:59.978Z,81.79
2022-10-22T14:52:10.533Z,81.81
2022-10-22T14:57:20.193Z,81.86
2022-10-22T15:02:27.923Z,81.91
2022-10-22T15:07:35.383Z,81.94
2022-10-22T15:12:42.851Z,81.97
2022-10-22T15:17:50.506Z,82.00
2022-10-22T15:22:58.282Z,82.01
2022-10-22T15:28:09.766Z,82.02
2022-10-22T15:33:17.462Z,82.04
2022-10-22T15:43:37.659Z,82.06
2022-10-22T15:48:45.816Z,82.08
2022-10-22T15:53:56.076Z,82.09
2022-10-22T15:59:04.658Z,82.11
2022-10-22T16:04:12.608Z,82.15
2022-10-22T16:09:22.406Z,82.16
2022-10-22T16:14:30.722Z,82.16
2022-10-22T16:19:38.733Z,82.20
2022-10-22T16:24:47.301Z,82.23
2022-10-22T16:29:55.213Z,82.24
2022-10-22T16:35:03.224Z,82.26
2022-10-22T16:40:13.423Z,82.28
2022-10-22T16:45:22.998Z,82.29
2022-10-22T16:50:31.548Z,82.32
2022-10-22T16:55:42.252Z,82.35
2022-10-22T17:00:50.410Z,82.38
2022-10-22T17:06:00.039Z,82.41
2022-10-22T17:11:12.177Z,82.44
2022-10-22T17:16:22.062Z,82.45
2022-10-22T17:21:30.597Z,82.48
2022-10-22T17:26:38.903Z,82.51
2022-10-22T17:31:46.915Z,82.53
2022-10-22T17:36:56.255Z,82.56
2022-10-22T17:42:04.484Z,82.58
2022-10-22T17:47:12.680Z,82.62
2022-10-22T17:52:20.788Z,82.65
2022-10-22T17:57:29.817Z,82.68
2022-10-22T18:02:38.288Z,82.70
2022-10-22T18:07:46.500Z,82.73
2022-10-22T18:12:55.156Z,82.79
2022-10-22T18:18:03.573Z,82.89
2022-10-22T18:23:11.361Z,83.03
2022-10-22T18:28:20.378Z,83.13
2022-10-22T18:33:28.664Z,83.27
2022-10-22T18:38:39.004Z,83.43
2022-10-22T18:43:52.226Z,83.55
2022-10-22T18:49:01.422Z,83.63
2022-10-22T18:54:22.592Z,83.70
2022-10-22T18:59:33.287Z,83.71
2022-10-22T19:04:41.890Z,83.76
2022-10-22T19:09:50.216Z,83.79
2022-10-22T19:14:59.299Z,83.81
2022-10-22T19:20:08.371Z,83.82
2022-10-22T19:25:16.400Z,83.81
2022-10-22T19:30:24.860Z,83.81
2022-10-22T19:35:33.922Z,83.80
2022-10-22T19:40:44.653Z,83.82
2022-10-22T19:45:53.164Z,83.81
2022-10-22T19:51:04.902Z,83.82
2022-10-22T19:56:14.496Z,83.81
2022-10-22T20:01:22.807Z,83.80
2022-10-22T20:06:30.895Z,83.80
2022-10-22T20:11:38.915Z,83.81
2022-10-22T20:16:47.041Z,83.81
2022-10-22T20:21:54.981Z,83.82
2022-10-22T20:27:27.810Z,83.81
2022-10-22T20:32:38.972Z,83.86
2022-10-22T20:37:46.927Z,83.85
2022-10-22T20:42:54.996Z,83.85
2022-10-22T20:48:03.197Z,83.83
2022-10-22T20:53:14.634Z,83.83
2022-10-22T20:58:26.853Z,83.84
2022-10-22T21:03:35.244Z,83.83
2022-10-22T21:08:44.156Z,83.84
2022-10-22T21:13:51.894Z,83.86
2022-10-22T21:19:00.142Z,83.89
2022-10-22T21:24:09.299Z,83.91
2022-10-22T21:29:17.432Z,83.95
2022-10-22T21:34:24.974Z,84.01
2022-10-22T21:39:35.515Z,84.03
2022-10-22T21:44:45.468Z,84.08
2022-10-22T21:49:53.552Z,84.12
2022-10-22T21:55:01.980Z,84.15
2022-10-22T22:00:13.270Z,84.16
2022-10-22T22:05:27.027Z,84.17
2022-10-22T22:10:35.135Z,84.19
2022-10-22T22:15:42.555Z,84.22
2022-10-22T22:20:49.776Z,84.24
2022-10-22T22:26:02.359Z,84.29
2022-10-22T22:31:18.519Z,84.31
2022-10-22T22:36:25.806Z,84.36
2022-10-22T22:41:32.780Z,84.44
2022-10-22T22:46:40.176Z,84.51
2022-10-22T22:51:47.721Z,84.57
2022-10-22T22:56:54.776Z,84.63
2022-10-22T23:02:02.417Z,84.71
2022-10-22T23:07:09.941Z,84.77
2022-10-22T23:12:17.127Z,84.86
2022-10-22T23:17:24.416Z,84.87
2022-10-22T23:22:31.688Z,84.96
2022-10-22T23:27:39.389Z,85.10
2022-10-22T23:32:46.721Z,85.18
2022-10-22T23:37:54.058Z,85.30
2022-10-22T23:43:01.404Z,85.40
2022-10-22T23:48:09.076Z,85.50
2022-10-22T23:53:16.318Z,85.55
2022-10-22T23:58:23.731Z,85.66
